createdAt,value
2023-03-12T04:47:00.661Z,0.1
2023-03-12T04:49:00.557Z,0.2
2023-03-12T04:50:00.767Z,0.3
2023-03-12T04:52:00.577Z,0.4
2023-03-12T04:53:00.683Z,0.5
2023-03-12T04:55:01.305Z,0.7
2023-03-12T04:56:00.551Z,0.8
2023-03-12T04:57:00.595Z,1.0
2023-03-12T04:58:00.550Z,1.2
2023-03-12T04:59:00.569Z,1.4
2023-03-12T05:00:04.548Z,1.7
2023-03-12T05:01:00.569Z,1.9
2023-03-12T05:02:00.594Z,2.3
2023-03-12T05:03:00.650Z,2.6
2023-03-12T05:04:00.617Z,2.9
2023-03-12T05:05:01.248Z,3.5
2023-03-12T05:06:00.550Z,4.0
2023-03-12T05:07:00.594Z,4.5
2023-03-12T05:08:00.558Z,5.5
2023-03-12T05:09:00.568Z,6.4
2023-03-12T05:10:00.766Z,7.7
2023-03-12T05:11:00.563Z,9.1
2023-03-12T05:12:00.593Z,10.3
2023-03-12T05:13:00.562Z,12.4
2023-03-12T05:14:00.557Z,14.5
2023-03-12T05:15:01.479Z,17.6
2023-03-12T05:16:00.580Z,20.7
2023-03-12T05:17:00.608Z,23.7
2023-03-12T05:18:00.567Z,28.5
2023-03-12T05:19:00.855Z,33.3
2023-03-12T05:20:00.783Z,40.7
2023-03-12T05:21:00.576Z,48.0
2023-03-12T05:22:00.593Z,55.3
2023-03-12T05:23:00.553Z,66.2
2023-03-12T05:24:00.557Z,77.1
2023-03-12T05:25:00.781Z,93.0
2023-03-12T05:26:00.557Z,108.9
2023-03-12T05:27:00.587Z,124.9
2023-03-12T05:28:00.571Z,147.8
2023-03-12T05:29:00.563Z,170.7
2023-03-12T05:30:01.611Z,203.1
2023-03-12T05:31:00.568Z,235.5
2023-03-12T05:32:00.801Z,267.9
2023-03-12T05:33:00.582Z,312.5
2023-03-12T05:34:00.554Z,357.1
2023-03-12T05:35:01.089Z,422.0
2023-03-12T05:36:00.607Z,486.9
2023-03-12T05:37:00.587Z,551.7
2023-03-12T05:38:00.578Z,650.6
2023-03-12T05:39:00.560Z,749.5
2023-03-12T05:40:01.342Z,872.6
2023-03-12T05:41:00.560Z,995.7
2023-03-12T05:42:00.597Z,1118.9
2023-03-12T05:43:00.578Z,1264.4
2023-03-12T05:44:00.563Z,1409.9
2023-03-12T05:45:01.428Z,1578.0
2023-03-12T05:46:00.662Z,1746.1
2023-03-12T05:47:00.596Z,1914.1
2023-03-12T05:48:00.571Z,2097.4
2023-03-12T05:49:00.690Z,2280.7
2023-03-12T05:50:00.748Z,2463.1
2023-03-12T05:51:00.589Z,2645.6
2023-03-12T05:52:00.583Z,2828.1
2023-03-12T05:53:00.558Z,3014.7
2023-03-12T05:54:00.557Z,3201.4
2023-03-12T05:55:01.457Z,3413.8
2023-03-12T05:56:00.566Z,3626.2
2023-03-12T05:57:00.584Z,3838.6
2023-03-12T05:58:00.565Z,4074.5
2023-03-12T05:59:00.640Z,4310.5
2023-03-12T06:00:01.965Z,4564.0
2023-03-12T06:01:00.556Z,4817.5
2023-03-12T06:02:00.658Z,5071.1
2023-03-12T06:03:00.622Z,5341.1
2023-03-12T06:04:00.565Z,5611.1
2023-03-12T06:05:01.377Z,5897.8
2023-03-12T06:06:00.564Z,6184.5
2023-03-12T06:07:00.629Z,6471.3
2023-03-12T06:08:00.557Z,6774.7
2023-03-12T06:09:00.808Z,7078.2
2023-03-12T06:10:02.119Z,7464.1
2023-03-12T06:11:00.570Z,7849.9
2023-03-12T06:12:00.589Z,8235.8
2023-03-12T06:13:00.571Z,8833.7
2023-03-12T06:14:00.796Z,9431.5
2023-03-12T06:15:02.473Z,10171.5
2023-03-12T06:16:00.583Z,10911.5
2023-03-12T06:17:00.652Z,11651.5
2023-03-12T06:18:00.563Z,12419.9
2023-03-12T06:19:00.560Z,13188.2
2023-03-12T06:20:00.781Z,13947.6
2023-03-12T06:21:00.563Z,14707.0
2023-03-12T06:22:00.595Z,15466.4
2023-03-12T06:23:00.633Z,16294.3
2023-03-12T06:24:00.561Z,17122.1
2023-03-12T06:25:00.809Z,18059.7
2023-03-12T06:26:00.564Z,18997.3
2023-03-12T06:27:00.583Z,19934.9
2023-03-12T06:28:00.563Z,20895.8
2023-03-12T06:29:00.570Z,21856.7
2023-03-12T06:30:01.717Z,22842.6
2023-03-12T06:31:00.564Z,23828.5
2023-03-12T06:32:01.052Z,24814.5
2023-03-12T06:33:00.569Z,25799.3
2023-03-12T06:34:00.560Z,26784.2
2023-03-12T06:35:01.719Z,27561.4
2023-03-12T06:36:00.653Z,28338.6
2023-03-12T06:37:05.859Z,29115.8
2023-03-12T06:38:00.620Z,29457.1
2023-03-12T06:39:01.673Z,29798.5
2023-03-12T06:40:00.791Z,29796.7
2023-03-12T06:41:00.575Z,29795.0
2023-03-12T06:42:00.594Z,29793.3
2023-03-12T06:43:00.581Z,29488.8
2023-03-12T06:44:00.565Z,29184.3
2023-03-12T06:45:01.278Z,28950.6
2023-03-12T06:46:00.623Z,28716.9
2023-03-12T06:47:00.603Z,28483.1
2023-03-12T06:48:00.566Z,28512.5
2023-03-12T06:49:00.583Z,28541.9
2023-03-12T06:50:01.717Z,29116.7
2023-03-12T06:51:00.572Z,29691.5
2023-03-12T06:52:00.642Z,30266.3
2023-03-12T06:53:00.575Z,31319.1
2023-03-12T06:54:00.847Z,32371.9
2023-03-12T06:55:02.386Z,33384.3
2023-03-12T06:56:00.589Z,34396.6
2023-03-12T06:57:00.588Z,35408.9
2023-03-12T06:58:00.569Z,36428.7
2023-03-12T06:59:00.601Z,37448.5
2023-03-12T07:00:03.325Z,38239.0
2023-03-12T07:01:00.592Z,39029.5
2023-03-12T07:02:00.638Z,39819.9
2023-03-12T07:03:00.573Z,40360.5
2023-03-12T07:04:00.568Z,40901.1
2023-03-12T07:05:00.875Z,41056.1
2023-03-12T07:06:00.604Z,41211.0
2023-03-12T07:07:00.615Z,41365.9
2023-03-12T07:08:00.589Z,41362.3
2023-03-12T07:09:00.592Z,41358.6
2023-03-12T07:10:01.883Z,41583.4
2023-03-12T07:11:01.554Z,41808.2
2023-03-12T07:12:00.629Z,42033.0
2023-03-12T07:13:00.589Z,42430.6
2023-03-12T07:14:00.586Z,42828.2
2023-03-12T07:15:00.836Z,43451.6
2023-03-12T07:16:00.675Z,44075.0
2023-03-12T07:17:00.603Z,44698.4
2023-03-12T07:18:00.582Z,45668.8
2023-03-12T07:19:00.876Z,46639.2
2023-03-12T07:20:01.658Z,48032.2
2023-03-12T07:21:00.860Z,49425.2
2023-03-12T07:22:00.622Z,50818.2
2023-03-12T07:23:00.656Z,52368.0
2023-03-12T07:24:00.607Z,53917.8
2023-03-12T07:25:01.418Z,55375.0
2023-03-12T07:26:00.600Z,56832.2
2023-03-12T07:27:00.643Z,58289.4
2023-03-12T07:28:00.593Z,59580.1
2023-03-12T07:29:00.595Z,60870.7
2023-03-12T07:30:02.343Z,61876.3
2023-03-12T07:31:00.624Z,62881.8
2023-03-12T07:32:01.105Z,63887.3
2023-03-12T07:33:00.812Z,64459.7
2023-03-12T07:34:00.701Z,65032.0
2023-03-12T07:35:01.698Z,65199.7
2023-03-12T07:36:00.785Z,65367.3
2023-03-12T07:37:00.628Z,65535.0
2023-03-12T07:45:03.402Z,65535.0
2023-03-12T08:00:01.767Z,65535.0
2023-03-12T08:15:02.950Z,65535.0
2023-03-12T08:30:02.397Z,65535.0
2023-03-12T08:45:03.783Z,65535.0
2023-03-12T09:00:01.974Z,65535.0
2023-03-12T09:15:05.730Z,65535.0
2023-03-12T09:30:02.269Z,65535.0
2023-03-12T09:45:01.575Z,65535.0
2023-03-12T10:00:01.732Z,65535.0
2023-03-12T10:15:01.663Z,65535.0
2023-03-12T10:30:02.248Z,65535.0
2023-03-12T10:45:02.160Z,65535.0
2023-03-12T11:00:10.875Z,65535.0
2023-03-12T11:15:01.549Z,65535.0
2023-03-12T11:30:02.308Z,65535.0
2023-03-12T11:45:01.711Z,65535.0
2023-03-12T12:00:03.728Z,65535.0
2023-03-12T12:15:01.609Z,65535.0
2023-03-12T12:30:01.742Z,65535.0
2023-03-12T12:45:08.758Z,65535.0
2023-03-12T12:48:00.762Z,64293.2
2023-03-12T12:49:01.846Z,63051.4
2023-03-12T12:50:01.776Z,60144.1
2023-03-12T12:51:00.746Z,57236.9
2023-03-12T12:52:00.756Z,54329.6
2023-03-12T12:53:01.778Z,51651.3
2023-03-12T12:54:00.766Z,48973.1
2023-03-12T12:55:01.767Z,45889.3
2023-03-12T12:56:00.690Z,42805.6
2023-03-12T12:57:00.678Z,39721.9
2023-03-12T12:58:00.694Z,36536.5
2023-03-12T12:59:00.745Z,33351.2
2023-03-12T13:00:05.500Z,30614.3
2023-03-12T13:01:00.836Z,27877.5
2023-03-12T13:02:00.687Z,25140.6
2023-03-12T13:03:00.692Z,25749.3
2023-03-12T13:04:00.738Z,26357.9
2023-03-12T13:05:17.358Z,28294.5
2023-03-12T13:06:00.717Z,30231.1
2023-03-12T13:07:00.705Z,32167.7
2023-03-12T13:08:00.692Z,34230.6
2023-03-12T13:25:01.504Z,59470.0
2023-03-12T13:28:00.156Z,60986.3
2023-03-12T13:29:11.684Z,61896.0
2023-03-12T13:30:01.225Z,62502.5
2023-03-12T13:31:00.224Z,62935.7
2023-03-12T13:32:00.182Z,63260.6
2023-03-12T13:33:00.174Z,63513.3
2023-03-12T13:34:00.170Z,63715.5
2023-03-12T13:35:00.472Z,63880.9
2023-03-12T13:36:00.209Z,64018.8
2023-03-12T13:37:00.152Z,64135.4
2023-03-12T13:38:00.215Z,64235.4
2023-03-12T13:39:00.437Z,64322.0
2023-03-12T13:40:01.010Z,64726.3
2023-03-12T13:41:00.178Z,65130.7
2023-03-12T13:42:00.151Z,65535.0
2023-03-12T13:45:06.147Z,65535.0
2023-03-12T13:50:00.843Z,65411.6
2023-03-12T13:51:00.169Z,65288.2
2023-03-12T13:52:00.171Z,65164.8
2023-03-12T13:53:00.150Z,63808.9
2023-03-12T13:54:00.190Z,62453.1
2023-03-12T13:55:00.399Z,61163.2
2023-03-12T13:56:00.157Z,59873.3
2023-03-12T13:57:00.183Z,58583.5
2023-03-12T13:58:00.155Z,57154.5
2023-03-12T13:59:00.169Z,55725.6
2023-03-12T14:00:01.088Z,54995.8
2023-03-12T14:01:00.157Z,54266.0
2023-03-12T14:02:00.301Z,53536.2
2023-03-12T14:05:01.380Z,53659.6
2023-03-12T14:06:00.153Z,53783.0
2023-03-12T14:07:00.157Z,53906.4
2023-03-12T14:08:00.500Z,55262.3
2023-03-12T14:09:05.151Z,56618.1
2023-03-12T14:10:00.401Z,57908.0
2023-03-12T14:11:00.158Z,59197.9
2023-03-12T14:12:00.235Z,60487.7
2023-03-12T14:13:00.182Z,61916.7
2023-03-12T14:14:00.172Z,63345.6
2023-03-12T14:15:00.957Z,64075.4
2023-03-12T14:16:00.228Z,64805.2
2023-03-12T14:17:00.159Z,65535.0
2023-03-12T14:30:01.180Z,65535.0
2023-03-12T14:38:00.183Z,65494.5
2023-03-12T14:39:00.265Z,65453.9
2023-03-12T14:40:01.556Z,65234.5
2023-03-12T14:41:00.311Z,65015.1
2023-03-12T14:42:00.176Z,64795.7
2023-03-12T14:43:00.176Z,64551.8
2023-03-12T14:44:00.175Z,64307.9
2023-03-12T14:45:00.997Z,63605.9
2023-03-12T14:46:00.332Z,62904.0
2023-03-12T14:47:00.333Z,62202.1
2023-03-12T14:48:00.174Z,61531.5
2023-03-12T14:49:00.290Z,60860.9
2023-03-12T14:51:00.372Z,60344.1
2023-03-12T14:52:00.264Z,60085.7
2023-03-12T14:53:00.238Z,58812.2
2023-03-12T14:54:00.242Z,57538.7
2023-03-12T14:55:00.996Z,56641.6
2023-03-12T14:56:00.202Z,55744.5
2023-03-12T14:57:00.175Z,54847.3
2023-03-12T14:58:00.240Z,53612.9
2023-03-12T14:59:00.243Z,52378.4
2023-03-12T15:01:00.221Z,51431.3
2023-03-12T15:02:00.264Z,50957.8
2023-03-12T15:03:00.239Z,49977.0
2023-03-12T15:04:00.171Z,48996.2
2023-03-12T15:05:01.332Z,47210.2
2023-03-12T15:06:00.297Z,45424.2
2023-03-12T15:07:00.189Z,43638.2
2023-03-12T15:08:00.240Z,43144.7
2023-03-12T15:09:00.184Z,42651.3
2023-03-12T15:10:00.400Z,41977.3
2023-03-12T15:11:00.203Z,41303.3
2023-03-12T15:12:00.244Z,40629.3
2023-03-12T15:13:00.188Z,39763.3
2023-03-12T15:14:00.182Z,38897.4
2023-03-12T15:15:01.214Z,37623.7
2023-03-12T15:16:00.303Z,36350.1
2023-03-12T15:17:00.546Z,35076.4
2023-03-12T15:18:00.213Z,34088.9
2023-03-12T15:19:00.266Z,33101.5
2023-03-12T15:20:01.997Z,32322.4
2023-03-12T15:21:00.215Z,31543.3
2023-03-12T15:22:00.253Z,30764.3
2023-03-12T15:23:00.256Z,29886.1
2023-03-12T15:24:00.200Z,29008.0
2023-03-12T15:25:00.459Z,28175.9
2023-03-12T15:26:00.209Z,27343.9
2023-03-12T15:27:00.179Z,26511.8
2023-03-12T15:28:00.178Z,26328.7
2023-03-12T15:29:00.177Z,26145.7
2023-03-12T15:30:01.422Z,25464.3
2023-03-12T15:31:00.259Z,24782.9
2023-03-12T15:32:00.305Z,24101.5
2023-03-12T15:33:00.294Z,23650.3
2023-03-12T15:34:00.230Z,23199.1
2023-03-12T15:35:10.732Z,22785.2
2023-03-12T15:36:00.310Z,22371.3
2023-03-12T15:37:00.254Z,21957.5
2023-03-12T15:38:00.264Z,21306.1
2023-03-12T15:39:00.200Z,20654.8
2023-03-12T15:40:01.711Z,20358.1
2023-03-12T15:41:00.696Z,20061.3
2023-03-12T15:42:00.309Z,19764.6
2023-03-12T15:43:00.176Z,19168.9
2023-03-12T15:44:00.308Z,18573.3
2023-03-12T15:45:01.943Z,18427.8
2023-03-12T15:46:00.314Z,18282.3
2023-03-12T15:47:01.834Z,18136.9
2023-03-12T15:48:00.266Z,17885.0
2023-03-12T15:49:00.261Z,17633.1
2023-03-12T15:50:00.906Z,17528.3
2023-03-12T15:51:00.413Z,17423.4
2023-03-12T15:52:00.186Z,17318.5
2023-03-12T15:53:00.182Z,17063.6
2023-03-12T15:54:00.180Z,16808.7
2023-03-12T15:55:01.494Z,16229.7
2023-03-12T15:56:00.222Z,15650.7
2023-03-12T15:57:00.180Z,15071.7
2023-03-12T15:58:00.190Z,14629.3
2023-03-12T15:59:00.189Z,14187.0
2023-03-12T16:00:01.144Z,13959.2
2023-03-12T16:01:00.267Z,13731.4
2023-03-12T16:02:00.235Z,13503.6
2023-03-12T16:03:01.456Z,13162.5
2023-03-12T16:04:00.349Z,12821.5
2023-03-12T16:05:01.546Z,12574.7
2023-03-12T16:06:00.895Z,12327.9
2023-03-12T16:07:00.180Z,12081.1
2023-03-12T16:08:00.487Z,12015.3
2023-03-12T16:09:00.220Z,11949.6
2023-03-12T16:10:00.981Z,11625.1
2023-03-12T16:11:00.214Z,11300.5
2023-03-12T16:12:00.184Z,10976.0
2023-03-12T16:13:00.201Z,10832.0
2023-03-12T16:14:00.195Z,10688.0
2023-03-12T16:15:00.985Z,10598.8
2023-03-12T16:16:00.308Z,10509.6
2023-03-12T16:17:00.198Z,10420.4
2023-03-12T16:18:00.190Z,10525.3
2023-03-12T16:19:00.237Z,10630.1
2023-03-12T16:20:01.066Z,10558.0
2023-03-12T16:21:00.224Z,10485.9
2023-03-12T16:22:00.223Z,10413.7
2023-03-12T16:23:00.208Z,10284.0
2023-03-12T16:24:00.193Z,10154.3
2023-03-12T16:25:00.970Z,10177.8
2023-03-12T16:26:05.206Z,10201.3
2023-03-12T16:27:00.196Z,10224.9
2023-03-12T16:28:00.193Z,10152.2
2023-03-12T16:29:00.265Z,10079.5
2023-03-12T16:30:00.898Z,9749.3
2023-03-12T16:31:00.216Z,9419.0
2023-03-12T16:32:00.265Z,9088.7
2023-03-12T16:33:08.702Z,8666.2
2023-03-12T16:34:01.020Z,8243.7
2023-03-12T16:35:02.026Z,7868.4
2023-03-12T16:36:00.382Z,7493.1
2023-03-12T16:37:00.191Z,7117.9
2023-03-12T16:38:00.219Z,6855.1
2023-03-12T16:39:00.240Z,6592.3
2023-03-12T16:40:00.418Z,6272.7
2023-03-12T16:41:00.310Z,5953.2
2023-03-12T16:42:00.194Z,5633.7
2023-03-12T16:43:00.306Z,5231.3
2023-03-12T16:44:00.196Z,4828.9
2023-03-12T16:45:02.056Z,4585.7
2023-03-12T16:46:00.273Z,4342.6
2023-03-12T16:47:00.195Z,4099.5
2023-03-12T16:48:00.314Z,3966.6
2023-03-12T16:49:00.616Z,3833.7
2023-03-12T16:50:00.447Z,3670.0
2023-03-12T16:51:00.926Z,3506.3
2023-03-12T16:52:00.197Z,3342.5
2023-03-12T16:53:00.820Z,3202.1
2023-03-12T16:54:09.380Z,3061.6
2023-03-12T16:55:01.105Z,2970.3
2023-03-12T16:56:00.219Z,2878.9
2023-03-12T16:57:00.194Z,2787.6
2023-03-12T16:58:00.363Z,2761.6
2023-03-12T16:59:00.722Z,2735.6
2023-03-12T17:00:00.964Z,2646.6
2023-03-12T17:01:00.364Z,2557.6
2023-03-12T17:02:00.192Z,2468.6
2023-03-12T17:03:00.731Z,2353.7
2023-03-12T17:04:00.302Z,2238.9
2023-03-12T17:05:01.450Z,2157.3
2023-03-12T17:06:00.236Z,2075.7
2023-03-12T17:07:00.203Z,1994.1
2023-03-12T17:08:00.192Z,1876.3
2023-03-12T17:09:00.197Z,1758.6
2023-03-12T17:10:00.447Z,1638.9
2023-03-12T17:11:00.369Z,1519.1
2023-03-12T17:12:00.266Z,1399.4
2023-03-12T17:13:00.363Z,1274.4
2023-03-12T17:14:00.205Z,1149.4
2023-03-12T17:15:01.097Z,1066.2
2023-03-12T17:16:00.312Z,983.0
2023-03-12T17:17:00.814Z,899.8
2023-03-12T17:18:00.197Z,808.1
2023-03-12T17:19:00.203Z,716.5
2023-03-12T17:20:06.919Z,662.0
2023-03-12T17:21:00.223Z,607.5
2023-03-12T17:22:00.197Z,553.1
2023-03-12T17:23:00.265Z,515.6
2023-03-12T17:24:00.251Z,478.1
2023-03-12T17:25:00.794Z,462.3
2023-03-12T17:26:00.266Z,437.7
2023-03-12T17:27:00.478Z,413.1
2023-03-12T17:28:05.218Z,390.6
2023-03-12T17:29:00.205Z,368.1
2023-03-12T17:30:01.873Z,345.1
2023-03-12T17:31:00.239Z,322.1
2023-03-12T17:32:00.195Z,299.1
2023-03-12T17:33:00.300Z,275.0
2023-03-12T17:34:00.194Z,250.9
2023-03-12T17:35:00.409Z,222.9
2023-03-12T17:36:00.315Z,193.3
2023-03-12T17:37:00.206Z,163.7
2023-03-12T17:38:00.197Z,142.6
2023-03-12T17:39:00.205Z,121.5
2023-03-12T17:40:00.421Z,100.5
2023-03-12T17:41:00.271Z,87.6
2023-03-12T17:42:00.233Z,74.7
2023-03-12T17:43:00.206Z,65.3
2023-03-12T17:44:05.213Z,55.8
2023-03-12T17:45:01.030Z,50.0
2023-03-12T17:46:00.270Z,43.3
2023-03-12T17:47:00.296Z,36.7
2023-03-12T17:48:00.207Z,32.2
2023-03-12T17:49:00.203Z,27.7
2023-03-12T17:50:01.000Z,23.3
2023-03-12T17:51:01.663Z,20.3
2023-03-12T17:52:00.200Z,17.3
2023-03-12T17:53:00.477Z,15.3
2023-03-12T17:54:00.233Z,13.3
2023-03-12T17:55:00.937Z,11.3
2023-03-12T17:56:00.517Z,9.8
2023-03-12T17:57:00.214Z,8.3
2023-03-12T17:58:01.265Z,6.9
2023-03-12T17:59:00.204Z,5.4
2023-03-12T18:00:01.141Z,3.9
2023-03-12T18:01:00.258Z,3.3
2023-03-12T18:02:00.210Z,2.6
2023-03-12T18:03:00.287Z,2.3
2023-03-12T18:04:00.212Z,2.1
2023-03-12T18:05:02.708Z,1.7
2023-03-12T18:06:00.246Z,1.5
2023-03-12T18:07:00.211Z,1.3
2023-03-12T18:08:00.221Z,1.2
2023-03-12T18:09:00.207Z,1.1
2023-03-12T18:10:01.302Z,0.9
2023-03-12T18:11:00.240Z,0.8
2023-03-12T18:12:00.208Z,0.7
2023-03-12T18:13:00.497Z,0.5
2023-03-12T18:14:00.253Z,0.4
2023-03-12T18:15:02.583Z,0.3
2023-03-12T18:16:00.365Z,0.2
2023-03-12T18:17:00.231Z,0.1
